createdAt,value
2018-12-15T00:00:30.930Z,100627.28
2018-12-15T00:02:58.985Z,100620.38
2018-12-15T00:05:27.051Z,100622.52
2018-12-15T00:07:55.115Z,100625.33
2018-12-15T00:10:23.214Z,100621.53
2018-12-15T00:12:51.276Z,100619.02
2018-12-15T00:15:19.363Z,100619.76
2018-12-15T00:17:47.624Z,100620.54
2018-12-15T00:20:15.726Z,100620.59
2018-12-15T00:22:43.791Z,100617.31
2018-12-15T00:25:11.902Z,100625.56
2018-12-15T00:27:39.946Z,100622.11
2018-12-15T00:30:08.095Z,100624.38
2018-12-15T00:32:36.170Z,100624.53
2018-12-15T00:35:05.075Z,100624.91
2018-12-15T00:37:33.127Z,100628.19
2018-12-15T00:40:01.208Z,100634.63
2018-12-15T00:42:33.497Z,100638.28
2018-12-15T00:45:01.650Z,100637.77
2018-12-15T00:47:29.893Z,100650.63
2018-12-15T00:49:58.076Z,100648.23
2018-12-15T00:52:26.742Z,100657.31
2018-12-15T00:54:54.843Z,100656.53
2018-12-15T00:57:22.914Z,100660.34
2018-12-15T00:59:50.991Z,100658.36
2018-12-15T01:02:19.090Z,100661.76
2018-12-15T01:04:47.142Z,100661.28
2018-12-15T01:07:15.291Z,100665.41
2018-12-15T01:09:43.340Z,100673.38
2018-12-15T01:12:11.430Z,100678.14
2018-12-15T01:14:39.573Z,100676.16
2018-12-15T01:17:08.825Z,100673.18
2018-12-15T01:19:36.882Z,100674.07
2018-12-15T01:22:04.983Z,100675.64
2018-12-15T01:24:33.044Z,100677.19
2018-12-15T01:27:01.111Z,100679.06
2018-12-15T01:29:29.271Z,100690.52
2018-12-15T01:31:57.339Z,100684.97
2018-12-15T01:34:25.397Z,100685.70
2018-12-15T01:36:53.557Z,100685.09
2018-12-15T01:39:21.634Z,100686.19
2018-12-15T01:41:49.944Z,100682.90
2018-12-15T01:44:18.029Z,100685.18
2018-12-15T01:46:46.082Z,100687.01
2018-12-15T01:49:14.150Z,100687.03
2018-12-15T01:51:42.206Z,100687.91
2018-12-15T01:54:10.342Z,100687.50
2018-12-15T01:56:38.395Z,100685.92
2018-12-15T01:59:06.471Z,100687.75
2018-12-15T02:01:34.550Z,100684.62
2018-12-15T02:04:02.739Z,100687.23
2018-12-15T02:06:30.798Z,100686.92
2018-12-15T02:08:58.906Z,100684.46
2018-12-15T02:11:26.962Z,100681.42
2018-12-15T02:13:55.095Z,100682.90
2018-12-15T02:16:23.182Z,100679.92
2018-12-15T02:18:51.229Z,100677.45
2018-12-15T02:21:19.314Z,100676.52
2018-12-15T02:23:48.729Z,100675.62
2018-12-15T02:26:16.771Z,100675.05
2018-12-15T02:28:44.835Z,100671.16
2018-12-15T02:31:12.990Z,100668.22
2018-12-15T02:33:41.091Z,100660.92
2018-12-15T02:36:09.264Z,100665.05
2018-12-15T02:38:37.429Z,100660.50
2018-12-15T02:41:05.520Z,100659.67
2018-12-15T02:43:33.609Z,100657.90
2018-12-15T02:46:01.695Z,100657.17
2018-12-15T02:48:30.855Z,100657.59
2018-12-15T02:50:58.959Z,100657.69
2018-12-15T02:53:27.015Z,100662.71
2018-12-15T02:55:55.206Z,100657.55
2018-12-15T02:58:23.283Z,100655.10
2018-12-15T03:00:51.480Z,100653.16
2018-12-15T03:03:19.568Z,100658.44
2018-12-15T03:05:47.972Z,100652.91
2018-12-15T03:08:16.040Z,100651.17
2018-12-15T03:10:44.091Z,100652.84
2018-12-15T03:13:12.188Z,100652.42
2018-12-15T03:15:40.230Z,100653.45
2018-12-15T03:18:08.305Z,100652.52
2018-12-15T03:20:36.446Z,100652.47
2018-12-15T03:23:04.513Z,100645.84
2018-12-15T03:25:32.566Z,100639.88
2018-12-15T03:28:00.718Z,100641.59
2018-12-15T03:30:28.787Z,100636.84
2018-12-15T03:32:56.943Z,100635.75
2018-12-15T03:35:25.124Z,100623.86
2018-12-15T03:37:53.270Z,100623.33
2018-12-15T03:40:21.333Z,100631.47
2018-12-15T03:42:49.411Z,100630.78
2018-12-15T03:45:18.439Z,100630.78
2018-12-15T03:47:46.507Z,100631.53
2018-12-15T03:50:14.563Z,100630.69
2018-12-15T03:52:42.627Z,100632.88
2018-12-15T03:55:10.758Z,100631.88
2018-12-15T03:57:38.835Z,100638.67
2018-12-15T04:00:07.405Z,100639.86
2018-12-15T04:02:36.571Z,100638.67
2018-12-15T04:05:05.340Z,100630.99
2018-12-15T04:07:33.390Z,100632.68
2018-12-15T04:10:02.072Z,100631.11
2018-12-15T04:12:30.202Z,100627.05
2018-12-15T04:14:58.290Z,100635.50
2018-12-15T04:17:26.435Z,100632.83
2018-12-15T04:19:54.591Z,100629.14
2018-12-15T04:22:22.840Z,100632.25
2018-12-15T04:24:50.904Z,100634.04
2018-12-15T04:27:19.002Z,100630.44
2018-12-15T04:29:47.336Z,100641.20
2018-12-15T04:32:15.398Z,100637.79
2018-12-15T04:34:43.456Z,100634.05
2018-12-15T04:37:11.511Z,100636.80
2018-12-15T04:39:39.565Z,100644.26
2018-12-15T04:42:07.616Z,100647.07
2018-12-15T04:44:36.935Z,100637.63
2018-12-15T04:47:05.355Z,100638.21
2018-12-15T04:49:33.449Z,100636.89
2018-12-15T04:52:01.522Z,100645.41
2018-12-15T04:54:29.670Z,100634.61
2018-12-15T04:56:57.723Z,100630.89
2018-12-15T04:59:25.865Z,100630.43
2018-12-15T05:01:53.963Z,100635.50
2018-12-15T05:04:22.050Z,100634.28
2018-12-15T05:06:50.121Z,100633.34
2018-12-15T05:09:19.160Z,100629.47
2018-12-15T05:11:47.248Z,100630.52
2018-12-15T05:14:15.296Z,100631.55
2018-12-15T05:16:43.378Z,100628.58
2018-12-15T05:19:11.470Z,100629.09
2018-12-15T05:21:39.551Z,100625.17
2018-12-15T05:24:07.629Z,100619.87
2018-12-15T05:26:35.774Z,100618.49
2018-12-15T05:29:03.973Z,100625.34
2018-12-15T05:31:32.051Z,100628.94
2018-12-15T05:34:00.123Z,100627.31
2018-12-15T05:36:28.273Z,100626.59
2018-12-15T05:38:56.319Z,100626.08
2018-12-15T05:41:24.511Z,100625.57
2018-12-15T05:43:52.572Z,100632.61
2018-12-15T05:46:20.702Z,100626.19
2018-12-15T05:48:48.995Z,100626.19
2018-12-15T05:51:17.063Z,100631.16
2018-12-15T05:53:45.207Z,100634.28
2018-12-15T05:56:13.256Z,100637.84
2018-12-15T05:58:41.353Z,100638.50
2018-12-15T06:01:09.442Z,100637.47
2018-12-15T06:03:37.519Z,100641.60
2018-12-15T06:06:05.585Z,100640.39
2018-12-15T06:08:33.645Z,100650.81
2018-12-15T06:11:01.699Z,100649.50
2018-12-15T06:13:29.842Z,100653.20
2018-12-15T06:15:58.910Z,100653.05
2018-12-15T06:18:31.683Z,100660.00
2018-12-15T06:20:57.171Z,100651.70
2018-12-15T06:23:25.227Z,100643.63
2018-12-15T06:25:53.278Z,100638.39
2018-12-15T06:28:21.347Z,100639.91
2018-12-15T06:30:49.429Z,100635.42
2018-12-15T06:33:17.485Z,100634.33
2018-12-15T06:35:45.554Z,100638.77
2018-12-15T06:38:13.612Z,100640.45
2018-12-15T06:40:41.672Z,100636.75
2018-12-15T06:43:09.814Z,100622.97
2018-12-15T06:45:37.879Z,100623.81
2018-12-15T06:48:05.969Z,100619.89
2018-12-15T06:50:34.042Z,100618.48
2018-12-15T06:53:02.103Z,100616.30
2018-12-15T06:55:30.198Z,100622.92
2018-12-15T06:57:58.884Z,100620.63
2018-12-15T07:00:26.942Z,100621.56
2018-12-15T07:02:55.010Z,100616.44
2018-12-15T07:05:23.119Z,100623.28
2018-12-15T07:07:51.191Z,100617.27
2018-12-15T07:10:19.291Z,100615.59
2018-12-15T07:12:47.375Z,100615.41
2018-12-15T07:15:15.486Z,100612.27
2018-12-15T07:17:43.559Z,100612.73
2018-12-15T07:20:11.653Z,100620.61
2018-12-15T07:22:39.709Z,100623.02
2018-12-15T07:25:07.778Z,100624.63
2018-12-15T07:27:35.861Z,100628.50
2018-12-15T07:30:05.600Z,100625.58
2018-12-15T07:32:33.646Z,100631.33
2018-12-15T07:35:01.718Z,100633.04
2018-12-15T07:37:29.910Z,100633.09
2018-12-15T07:39:59.133Z,100631.17
2018-12-15T07:42:27.186Z,100635.61
2018-12-15T07:44:55.245Z,100631.48
2018-12-15T07:47:23.385Z,100638.90
2018-12-15T07:49:51.421Z,100635.67
2018-12-15T07:52:19.511Z,100636.55
2018-12-15T07:54:47.611Z,100629.51
2018-12-15T07:57:15.746Z,100621.30
2018-12-15T07:59:43.824Z,100626.06
2018-12-15T08:02:11.945Z,100620.53
2018-12-15T08:04:40.266Z,100618.81
2018-12-15T08:07:08.398Z,100623.81
2018-12-15T08:09:36.815Z,100633.05
2018-12-15T08:12:10.498Z,100630.95
2018-12-15T08:14:38.563Z,100635.97
2018-12-15T08:17:06.756Z,100648.02
2018-12-15T08:19:34.811Z,100645.62
2018-12-15T08:22:02.887Z,100651.94
2018-12-15T08:24:30.953Z,100648.55
2018-12-15T08:26:59.100Z,100642.92
2018-12-15T08:29:27.242Z,100641.52
2018-12-15T08:31:55.294Z,100643.86
2018-12-15T08:34:23.357Z,100636.14
2018-12-15T08:36:51.589Z,100640.87
2018-12-15T08:39:20.858Z,100639.16
2018-12-15T08:41:48.947Z,100638.75
2018-12-15T08:44:17.002Z,100636.23
2018-12-15T08:46:45.062Z,100635.08
2018-12-15T08:49:13.128Z,100639.05
2018-12-15T08:51:42.488Z,100637.91
2018-12-15T08:54:10.739Z,100638.70
2018-12-15T08:56:38.826Z,100642.52
2018-12-15T08:59:06.900Z,100646.41
2018-12-15T09:01:34.964Z,100643.49
2018-12-15T09:04:03.065Z,100638.97
2018-12-15T09:06:31.122Z,100637.92
2018-12-15T09:08:59.191Z,100648.73
2018-12-15T09:11:27.291Z,100647.69
2018-12-15T09:13:55.362Z,100649.34
2018-12-15T09:16:26.528Z,100648.56
2018-12-15T09:18:53.499Z,100647.73
2018-12-15T09:21:21.586Z,100653.70
2018-12-15T09:23:49.662Z,100653.89
2018-12-15T09:26:17.770Z,100653.70
2018-12-15T09:28:45.872Z,100648.27
2018-12-15T09:31:14.066Z,100652.22
2018-12-15T09:33:42.198Z,100657.81
2018-12-15T09:36:10.267Z,100658.42
2018-12-15T09:38:38.366Z,100660.05
2018-12-15T09:41:06.398Z,100650.91
2018-12-15T09:43:34.598Z,100647.57
2018-12-15T09:46:02.678Z,100646.69
2018-12-15T09:48:30.820Z,100638.65
2018-12-15T09:50:58.874Z,100639.59
2018-12-15T09:53:27.068Z,100638.13
2018-12-15T09:55:55.205Z,100635.05
2018-12-15T09:58:23.279Z,100639.38
2018-12-15T10:00:51.356Z,100637.88
2018-12-15T10:03:19.430Z,100639.33
2018-12-15T10:05:47.526Z,100631.13
2018-12-15T10:08:15.595Z,100623.29
2018-12-15T10:10:43.861Z,100613.48
2018-12-15T10:13:12.022Z,100608.27
2018-12-15T10:15:40.097Z,100602.37
2018-12-15T10:18:08.197Z,100608.74
2018-12-15T10:20:36.265Z,100600.28
2018-12-15T10:23:04.310Z,100601.28
2018-12-15T10:25:32.384Z,100593.80
2018-12-15T10:28:00.444Z,100591.20
2018-12-15T10:30:34.115Z,100591.83
2018-12-15T10:33:02.258Z,100581.08
2018-12-15T10:35:30.642Z,100573.45
2018-12-15T10:37:59.142Z,100562.75
2018-12-15T10:40:27.210Z,100566.52
2018-12-15T10:42:55.285Z,100569.80
2018-12-15T10:45:23.391Z,100558.89
2018-12-15T10:47:51.498Z,100551.33
2018-12-15T10:50:19.608Z,100555.11
2018-12-15T10:52:47.886Z,100539.61
2018-12-15T10:55:15.949Z,100538.75
2018-12-15T10:57:44.005Z,100539.83
2018-12-15T11:03:12.330Z,100537.42
2018-12-15T11:05:40.391Z,100534.34
2018-12-15T11:08:08.484Z,100531.13
2018-12-15T11:10:37.651Z,100534.31
2018-12-15T11:13:05.930Z,100525.63
2018-12-15T11:15:34.002Z,100510.42
2018-12-15T11:18:02.051Z,100515.28
2018-12-15T11:20:30.158Z,100517.01
2018-12-15T11:22:58.282Z,100510.69
2018-12-15T11:25:26.436Z,100507.17
2018-12-15T11:27:54.500Z,100509.77
2018-12-15T11:30:22.568Z,100504.54
2018-12-15T11:32:50.641Z,100495.31
2018-12-15T11:35:19.422Z,100491.97
2018-12-15T11:37:47.470Z,100484.18
2018-12-15T11:40:15.695Z,100483.27
2018-12-15T11:42:43.803Z,100475.02
2018-12-15T11:45:11.998Z,100475.98
2018-12-15T11:47:40.054Z,100470.54
2018-12-15T11:50:08.330Z,100473.46
2018-12-15T11:52:36.434Z,100461.49
2018-12-15T11:55:05.015Z,100463.12
2018-12-15T11:57:33.135Z,100447.30
2018-12-15T12:00:01.558Z,100441.33
2018-12-15T12:02:31.981Z,100449.39
2018-12-15T12:04:59.705Z,100455.37
2018-12-15T12:07:27.766Z,100450.21
2018-12-15T12:09:55.899Z,100456.12
2018-12-15T12:12:24.062Z,100468.26
2018-12-15T12:14:52.278Z,100448.05
2018-12-15T12:17:20.382Z,100456.97
2018-12-15T12:19:50.352Z,100448.45
2018-12-15T12:22:18.522Z,100440.95
2018-12-15T12:24:46.668Z,100430.84
2018-12-15T12:27:14.771Z,100419.52
2018-12-15T12:29:42.875Z,100410.95
2018-12-15T12:32:10.986Z,100402.71
2018-12-15T12:34:39.210Z,100402.44
2018-12-15T12:37:07.308Z,100401.03
2018-12-15T12:39:35.389Z,100395.30
2018-12-15T12:42:03.456Z,100387.94
2018-12-15T12:44:31.611Z,100395.53
2018-12-15T12:46:59.738Z,100399.61
2018-12-15T12:49:28.181Z,100403.31
2018-12-15T12:51:56.417Z,100402.76
2018-12-15T12:54:24.994Z,100402.88
2018-12-15T12:56:55.024Z,100393.36
2018-12-15T12:59:24.315Z,100394.16
2018-12-15T13:01:52.890Z,100401.38
2018-12-15T13:04:41.546Z,100392.84
2018-12-15T13:07:10.945Z,100385.67
2018-12-15T13:09:39.829Z,100379.70
2018-12-15T13:12:08.385Z,100383.75
2018-12-15T13:14:37.573Z,100377.09
2018-12-15T13:17:06.940Z,100375.92
2018-12-15T13:19:35.148Z,100380.02
2018-12-15T13:22:03.355Z,100368.52
2018-12-15T13:24:35.300Z,100367.11
2018-12-15T13:27:03.589Z,100369.95
2018-12-15T13:29:33.510Z,100372.11
2018-12-15T13:32:01.877Z,100369.88
2018-12-15T13:34:31.891Z,100368.59
2018-12-15T13:37:01.109Z,100366.14
2018-12-15T13:39:29.265Z,100355.92
2018-12-15T13:41:57.644Z,100361.70
2018-12-15T13:44:27.457Z,100354.56
2018-12-15T13:46:55.853Z,100345.66
2018-12-15T13:49:24.150Z,100347.72
2018-12-15T13:51:52.318Z,100350.41
2018-12-15T13:54:21.548Z,100337.91
2018-12-15T13:56:49.846Z,100352.02
2018-12-15T13:59:18.027Z,100341.63
2018-12-15T14:01:46.179Z,100331.28
2018-12-15T14:04:14.271Z,100329.45
2018-12-15T14:06:42.373Z,100325.83
2018-12-15T14:09:10.452Z,100315.05
2018-12-15T14:11:38.523Z,100298.30
2018-12-15T14:14:06.637Z,100297.89
2018-12-15T14:16:34.774Z,100288.03
2018-12-15T14:19:02.979Z,100288.94
2018-12-15T14:21:31.117Z,100286.55
2018-12-15T14:23:59.174Z,100287.50
2018-12-15T14:26:27.249Z,100285.91
2018-12-15T14:28:55.399Z,100284.23
2018-12-15T14:31:23.466Z,100276.88
2018-12-15T14:33:51.527Z,100270.62
2018-12-15T14:36:19.668Z,100267.24
2018-12-15T14:38:47.782Z,100260.12
2018-12-15T14:41:16.094Z,100258.29
2018-12-15T14:43:44.191Z,100245.75
2018-12-15T14:46:12.262Z,100244.14
2018-12-15T14:48:40.334Z,100238.88
2018-12-15T14:51:08.576Z,100226.80
2018-12-15T14:53:36.622Z,100226.39
2018-12-15T14:56:04.771Z,100227.00
2018-12-15T14:58:32.900Z,100223.02
2018-12-15T15:01:01.005Z,100223.21
2018-12-15T15:03:29.079Z,100228.03
2018-12-15T15:05:57.154Z,100220.28
2018-12-15T15:08:25.332Z,100209.81
2018-12-15T15:10:53.403Z,100204.86
2018-12-15T15:13:21.779Z,100198.37
2018-12-15T15:15:49.843Z,100204.84
2018-12-15T15:18:17.903Z,100202.25
2018-12-15T15:20:46.013Z,100197.69
2018-12-15T15:23:14.060Z,100193.37
2018-12-15T15:25:42.132Z,100194.48
2018-12-15T15:28:10.235Z,100187.61
2018-12-15T15:30:38.363Z,100181.62
2018-12-15T15:33:06.555Z,100185.64
2018-12-15T15:35:34.626Z,100183.42
2018-12-15T15:38:02.683Z,100180.56
2018-12-15T15:40:30.791Z,100196.46
2018-12-15T15:42:58.987Z,100185.02
2018-12-15T15:45:27.045Z,100179.13
2018-12-15T15:47:55.114Z,100178.56
2018-12-15T15:50:23.199Z,100169.23
2018-12-15T15:52:51.384Z,100163.00
2018-12-15T15:55:19.439Z,100163.26
2018-12-15T15:57:47.574Z,100159.56
2018-12-15T16:00:15.695Z,100160.19
2018-12-15T16:02:43.787Z,100158.85
2018-12-15T16:05:11.850Z,100159.98
2018-12-15T16:07:39.916Z,100153.02
2018-12-15T16:10:09.599Z,100154.17
2018-12-15T16:12:37.676Z,100157.41
2018-12-15T16:15:08.051Z,100145.63
2018-12-15T16:17:36.331Z,100147.98
2018-12-15T16:20:09.476Z,100140.91
2018-12-15T16:22:37.563Z,100142.53
2018-12-15T16:25:05.991Z,100134.98
2018-12-15T16:27:34.174Z,100129.69
2018-12-15T16:30:02.379Z,100126.05
2018-12-15T16:32:30.446Z,100119.23
2018-12-15T16:34:58.513Z,100116.28
2018-12-15T16:37:26.577Z,100109.77
2018-12-15T16:39:54.795Z,100114.03
2018-12-15T16:42:22.860Z,100096.55
2018-12-15T16:44:50.982Z,100086.97
2018-12-15T16:47:19.102Z,100090.30
2018-12-15T16:49:47.275Z,100086.81
2018-12-15T16:52:15.662Z,100082.28
2018-12-15T16:54:43.782Z,100090.05
2018-12-15T16:57:11.901Z,100093.28
2018-12-15T16:59:39.973Z,100072.10
2018-12-15T17:02:08.223Z,100082.04
2018-12-15T17:04:36.290Z,100070.75
2018-12-15T17:07:04.408Z,100079.64
2018-12-15T17:09:32.526Z,100072.42
2018-12-15T17:12:00.618Z,100066.48
2018-12-15T17:14:28.711Z,100054.93
2018-12-15T17:16:56.791Z,100051.29
2018-12-15T17:19:24.874Z,100044.41
2018-12-15T17:24:30.310Z,100037.19
2018-12-15T17:26:58.393Z,100022.50
2018-12-15T17:29:26.534Z,100026.73
2018-12-15T17:31:54.707Z,100006.45
2018-12-15T17:34:22.779Z,100000.88
2018-12-15T17:36:50.843Z,99990.48
2018-12-15T17:39:19.266Z,99986.11
2018-12-15T17:41:47.405Z,99988.20
2018-12-15T17:44:15.470Z,99973.41
2018-12-15T17:46:43.534Z,99973.73
2018-12-15T17:49:11.603Z,99964.41
2018-12-15T17:51:39.683Z,99959.09
2018-12-15T17:54:07.801Z,99953.48
2018-12-15T17:56:35.875Z,99945.52
2018-12-15T17:59:04.014Z,99935.55
2018-12-15T18:01:32.070Z,99934.08
2018-12-15T18:04:00.133Z,99926.55
2018-12-15T18:06:28.238Z,99928.73
2018-12-15T18:08:56.331Z,99920.77
2018-12-15T18:11:24.484Z,99920.03
2018-12-15T18:13:52.559Z,99912.08
2018-12-15T18:16:20.703Z,99915.67
2018-12-15T18:18:49.095Z,99911.66
2018-12-15T18:21:17.450Z,99902.64
2018-12-15T18:23:45.573Z,99902.28
2018-12-15T18:26:13.623Z,99905.56
2018-12-15T18:28:41.796Z,99898.55
2018-12-15T18:31:09.851Z,99890.45
2018-12-15T18:33:37.999Z,99893.31
2018-12-15T18:36:06.089Z,99887.52
2018-12-15T18:38:34.143Z,99880.58
2018-12-15T18:41:02.203Z,99872.36
2018-12-15T18:43:30.257Z,99862.00
2018-12-15T18:45:58.360Z,99864.18
2018-12-15T18:48:26.506Z,99866.05
2018-12-15T18:50:54.636Z,99863.09
2018-12-15T18:53:22.731Z,99863.25
2018-12-15T18:55:51.565Z,99870.33
2018-12-15T18:58:19.759Z,99866.12
2018-12-15T19:00:47.824Z,99867.84
2018-12-15T19:03:15.900Z,99870.27
2018-12-15T19:05:45.139Z,99864.59
2018-12-15T19:08:13.231Z,99870.25
2018-12-15T19:10:41.300Z,99868.27
2018-12-15T19:13:09.370Z,99861.55
2018-12-15T19:15:37.461Z,99849.02
2018-12-15T19:18:06.577Z,99837.41
2018-12-15T19:20:34.671Z,99837.19
2018-12-15T19:23:02.834Z,99824.81
2018-12-15T19:25:30.920Z,99811.66
2018-12-15T19:27:58.978Z,99812.38
2018-12-15T19:30:31.139Z,99811.19
2018-12-15T19:33:04.211Z,99813.81
2018-12-15T19:35:33.232Z,99806.97
2018-12-15T19:38:01.402Z,99808.84
2018-12-15T19:40:31.817Z,99801.52
2018-12-15T19:42:59.933Z,99803.53
2018-12-15T19:45:28.110Z,99804.88
2018-12-15T19:47:56.184Z,99804.13
2018-12-15T19:50:24.590Z,99788.42
2018-12-15T19:52:52.762Z,99789.50
2018-12-15T19:55:20.896Z,99773.89
2018-12-15T19:57:53.733Z,99766.97
2018-12-15T20:00:22.215Z,99773.53
2018-12-15T20:02:50.288Z,99767.44
2018-12-15T20:05:18.928Z,99775.13
2018-12-15T20:07:47.312Z,99765.03
2018-12-15T20:10:17.409Z,99755.48
2018-12-15T20:12:45.612Z,99741.73
2018-12-15T20:15:13.739Z,99749.33
2018-12-15T20:17:41.851Z,99754.84
2018-12-15T20:20:10.141Z,99754.78
2018-12-15T20:22:38.567Z,99737.48
2018-12-15T20:25:06.861Z,99735.53
2018-12-15T20:27:34.941Z,99734.27
2018-12-15T20:30:03.608Z,99730.28
2018-12-15T20:32:31.691Z,99725.72
2018-12-15T20:34:59.868Z,99715.02
2018-12-15T20:37:28.181Z,99708.80
2018-12-15T20:39:57.635Z,99712.37
2018-12-15T20:42:25.786Z,99715.67
2018-12-15T20:44:53.846Z,99718.61
2018-12-15T20:47:27.812Z,99705.51
2018-12-15T20:49:54.122Z,99693.84
2018-12-15T20:52:22.200Z,99690.99
2018-12-15T20:54:50.250Z,99683.41
2018-12-15T20:57:20.859Z,99681.52
2018-12-15T20:59:48.963Z,99679.32
2018-12-15T21:02:18.926Z,99668.02
2018-12-15T21:04:48.314Z,99667.21
2018-12-15T21:07:16.422Z,99669.71
2018-12-15T21:09:47.204Z,99671.09
2018-12-15T21:12:15.370Z,99656.55
2018-12-15T21:14:43.546Z,99645.25
2018-12-15T21:17:13.999Z,99652.05
2018-12-15T21:19:48.101Z,99640.74
2018-12-15T21:22:18.279Z,99632.48
2018-12-15T21:24:48.336Z,99619.52
2018-12-15T21:27:18.816Z,99605.56
2018-12-15T21:29:47.450Z,99593.44
2018-12-15T21:32:15.532Z,99593.18
2018-12-15T21:34:43.609Z,99582.69
2018-12-15T21:37:11.752Z,99580.58
2018-12-15T21:39:39.808Z,99553.10
2018-12-15T21:42:07.885Z,99546.78
2018-12-15T21:44:36.002Z,99545.73
2018-12-15T21:47:04.175Z,99548.91
2018-12-15T21:49:32.239Z,99540.09
2018-12-15T21:52:00.430Z,99529.98
2018-12-15T21:54:28.502Z,99526.52
2018-12-15T21:56:56.560Z,99516.09
2018-12-15T21:59:24.636Z,99516.98
2018-12-15T22:01:52.698Z,99515.47
2018-12-15T22:04:20.762Z,99502.94
2018-12-15T22:06:48.822Z,99507.90
2018-12-15T22:09:16.935Z,99496.54
2018-12-15T22:11:45.061Z,99490.73
2018-12-15T22:14:13.136Z,99488.53
2018-12-15T22:16:41.205Z,99482.38
2018-12-15T22:19:19.483Z,99482.00
2018-12-15T22:21:47.591Z,99481.48
2018-12-15T22:24:15.869Z,99473.61
2018-12-15T22:26:43.989Z,99477.05
2018-12-15T22:29:12.087Z,99466.34
2018-12-15T22:31:40.164Z,99463.67
2018-12-15T22:34:08.766Z,99466.11
2018-12-15T22:36:37.059Z,99464.97
2018-12-15T22:39:07.044Z,99449.95
2018-12-15T22:41:35.123Z,99454.98
2018-12-15T22:44:03.182Z,99450.25
2018-12-15T22:46:31.242Z,99448.25
2018-12-15T22:48:59.341Z,99446.34
2018-12-15T22:51:27.412Z,99439.99
2018-12-15T22:53:55.470Z,99428.09
2018-12-15T22:56:23.579Z,99436.73
2018-12-15T22:58:51.701Z,99437.10
2018-12-15T23:01:19.907Z,99439.33
2018-12-15T23:03:48.136Z,99431.52
2018-12-15T23:06:16.201Z,99435.05
2018-12-15T23:08:44.268Z,99421.81
2018-12-15T23:11:12.375Z,99424.45
2018-12-15T23:13:40.479Z,99423.50
2018-12-15T23:16:08.591Z,99418.23
2018-12-15T23:18:36.754Z,99416.35
2018-12-15T23:21:04.859Z,99435.05
2018-12-15T23:23:32.915Z,99430.26
2018-12-15T23:26:01.071Z,99448.78
2018-12-15T23:28:29.220Z,99450.77
2018-12-15T23:30:57.291Z,99459.13
2018-12-15T23:33:25.407Z,99463.95
2018-12-15T23:35:53.495Z,99465.06
2018-12-15T23:38:21.559Z,99470.64
2018-12-15T23:40:49.617Z,99468.52
2018-12-15T23:43:17.719Z,99464.99
2018-12-15T23:45:45.823Z,99467.75
2018-12-15T23:48:13.996Z,99458.67
2018-12-15T23:50:42.108Z,99460.63
2018-12-15T23:53:12.039Z,99455.20
2018-12-15T23:55:42.195Z,99453.91
2018-12-15T23:58:11.911Z,99452.23
